Time;durP1;ratioP1;P1;durP2;ratioP2;P2;SDS_P1;SDS_P2;PMS_P1;PMS_P2;Temp;Humidity;BMP_temperature;BMP_pressure;BME280_temperature;BME280_humidity;BME280_pressure;Samples;Min_cycle;Max_cycle;Signal;HPM_P1;HPM_P2
2022/09/03 00:01:28;;;;;;;1.27;0.70;;;15.50;50.40;;;;;;4991927;28;20034;-77
2022/09/03 00:03:58;;;;;;;0.95;0.50;;;15.40;50.20;;;;;;4988892;28;20064;-77
2022/09/03 00:06:39;;;;;;;0.65;0.60;;;15.30;50.20;;;;;;4988236;28;20126;-78
2022/09/03 00:09:32;;;;;;;0.50;0.50;;;15.30;50.70;;;;;;4974989;28;20725;-77
2022/09/03 00:12:08;;;;;;;0.80;0.57;;;15.30;50.40;;;;;;4952873;28;20522;-77
2022/09/03 00:14:40;;;;;;;1.42;0.77;;;15.20;50.60;;;;;;4957417;28;20037;-78
2022/09/03 00:17:16;;;;;;;1.20;0.70;;;15.20;50.80;;;;;;4975509;28;20046;-78
2022/09/03 00:19:50;;;;;;;5.10;0.95;;;15.20;50.90;;;;;;4985045;28;20042;-77
2022/09/03 00:22:18;;;;;;;1.10;0.75;;;15.10;51.10;;;;;;4987991;28;20029;-77
2022/09/03 00:24:44;;;;;;;1.42;0.65;;;15.10;51.10;;;;;;4967047;28;20054;-77
2022/09/03 00:27:24;;;;;;;0.68;0.63;;;15.10;51.10;;;;;;4998839;28;20549;-77
2022/09/03 00:29:53;;;;;;;6.28;1.25;;;15.00;51.50;;;;;;4989717;28;20045;-78
2022/09/03 00:32:25;;;;;;;2.45;0.70;;;15.00;51.40;;;;;;4973927;28;20034;-77
2022/09/03 00:34:54;;;;;;;4.90;0.63;;;15.00;51.50;;;;;;4956142;28;20049;-77
2022/09/03 00:37:19;;;;;;;1.23;0.77;;;15.00;51.50;;;;;;4972935;28;20034;-76
2022/09/03 00:39:45;;;;;;;0.90;0.70;;;14.90;51.50;;;;;;4983455;28;20041;-77
2022/09/03 00:42:31;;;;;;;0.90;0.68;;;14.90;51.60;;;;;;4957364;28;20037;-77
2022/09/03 00:45:12;;;;;;;1.52;0.55;;;14.90;51.90;;;;;;4971389;28;20054;-76
2022/09/03 00:48:06;;;;;;;1.30;0.82;;;14.90;52.40;;;;;;4972026;28;20094;-78
2022/09/03 00:50:41;;;;;;;2.72;0.70;;;14.80;52.30;;;;;;4972201;28;20053;-77
2022/09/03 00:53:34;;;;;;;2.90;0.90;;;14.80;52.30;;;;;;4974424;28;20042;-77
2022/09/03 00:56:15;;;;;;;2.05;0.90;;;14.70;52.70;;;;;;4977369;28;20041;-77
2022/09/03 00:59:11;;;;;;;0.80;0.70;;;14.70;52.70;;;;;;4990525;28;20045;-77
2022/09/03 01:02:02;;;;;;;3.80;0.60;;;14.70;52.70;;;;;;4987639;28;20037;-77
2022/09/03 01:04:35;;;;;;;5.20;0.82;;;14.70;52.90;;;;;;4974484;28;20038;-77
2022/09/03 01:07:30;;;;;;;2.60;0.60;;;14.60;52.60;;;;;;4973207;28;20110;-77
2022/09/03 01:10:29;;;;;;;1.98;0.55;;;14.60;53.00;;;;;;4986576;28;20084;-77
2022/09/03 01:13:06;;;;;;;1.17;0.73;;;14.60;53.20;;;;;;4971932;28;20090;-78
2022/09/03 01:15:43;;;;;;;0.95;0.70;;;14.60;53.20;;;;;;4971108;28;20118;-77
2022/09/03 01:18:24;;;;;;;2.35;0.70;;;14.60;53.10;;;;;;4971427;28;20042;-77
2022/09/03 01:21:03;;;;;;;0.40;0.40;;;14.50;53.10;;;;;;4983258;28;20030;-78
2022/09/03 01:23:38;;;;;;;2.28;0.80;;;14.60;53.30;;;;;;4959681;28;20030;-77
2022/09/03 01:26:37;;;;;;;1.02;0.70;;;14.50;53.40;;;;;;4990587;28;20030;-78
2022/09/03 01:29:21;;;;;;;0.70;0.70;;;14.50;53.70;;;;;;4986994;28;20042;-77
2022/09/03 01:32:28;;;;;;;2.28;0.80;;;14.50;53.40;;;;;;4980828;28;20062;-76
2022/09/03 01:35:00;;;;;;;0.90;0.70;;;14.50;54.00;;;;;;4988341;28;20026;-77
2022/09/03 01:37:48;;;;;;;3.65;1.00;;;14.50;53.70;;;;;;4982257;28;20522;-76
2022/09/03 01:40:38;;;;;;;1.08;0.70;;;14.40;53.80;;;;;;4987168;28;20161;-77
2022/09/03 01:43:17;;;;;;;2.88;0.88;;;14.50;54.10;;;;;;4984553;28;20065;-76
2022/09/03 01:46:00;;;;;;;3.15;0.98;;;14.40;53.90;;;;;;4989958;28;20050;-79
2022/09/03 01:48:34;;;;;;;2.83;0.70;;;14.40;54.20;;;;;;4957874;28;20041;-77
2022/09/03 01:51:18;;;;;;;0.60;0.50;;;14.40;53.90;;;;;;4990683;28;20413;-77
2022/09/03 01:54:15;;;;;;;2.00;0.80;;;14.40;53.90;;;;;;4993859;28;20038;-77
2022/09/03 01:57:02;;;;;;;0.70;0.60;;;14.40;54.50;;;;;;4979809;28;20065;-77
2022/09/03 01:59:52;;;;;;;0.82;0.70;;;14.40;54.70;;;;;;4979907;28;20049;-77
2022/09/03 02:02:20;;;;;;;1.02;0.70;;;14.40;54.70;;;;;;4948874;28;20083;-77
2022/09/03 02:05:06;;;;;;;0.75;0.75;;;14.30;54.20;;;;;;4994599;28;20045;-77
2022/09/03 02:07:34;;;;;;;2.08;0.90;;;14.30;54.60;;;;;;4977180;28;20076;-78
2022/09/03 02:10:00;;;;;;;0.80;0.70;;;14.30;54.40;;;;;;4988937;28;20038;-77
2022/09/03 02:12:27;;;;;;;3.08;0.68;;;14.30;54.50;;;;;;4979699;28;20041;-77
2022/09/03 02:14:53;;;;;;;2.05;0.73;;;14.30;54.60;;;;;;4984023;28;20038;-77
2022/09/03 02:17:19;;;;;;;2.13;0.70;;;14.30;54.70;;;;;;4970660;28;20038;-77
2022/09/03 02:19:44;;;;;;;2.08;0.70;;;14.30;54.80;;;;;;4947643;28;20716;-76
2022/09/03 02:22:10;;;;;;;1.30;0.80;;;14.30;54.80;;;;;;4988253;28;20052;-76
2022/09/03 02:24:35;;;;;;;1.25;0.95;;;14.20;54.90;;;;;;4971977;28;20047;-77
2022/09/03 02:27:01;;;;;;;0.80;0.80;;;14.20;55.00;;;;;;4993314;28;20040;-77
2022/09/03 02:29:26;;;;;;;2.25;0.68;;;14.20;55.10;;;;;;4987964;28;20032;-75
2022/09/03 02:31:52;;;;;;;1.40;0.80;;;14.20;55.20;;;;;;4971171;28;20027;-77
2022/09/03 02:34:17;;;;;;;0.88;0.70;;;14.20;55.40;;;;;;4967283;28;20034;-77
2022/09/03 02:36:44;;;;;;;2.15;0.70;;;14.10;55.30;;;;;;4973157;28;20641;-77
2022/09/03 02:39:10;;;;;;;1.02;0.60;;;14.10;55.30;;;;;;4962207;28;20049;-77
2022/09/03 02:41:36;;;;;;;1.00;0.60;;;14.10;55.40;;;;;;4969110;28;20037;-78
2022/09/03 02:44:26;;;;;;;2.92;0.70;;;14.10;55.40;;;;;;4969899;28;20039;-77
2022/09/03 02:46:57;;;;;;;1.95;0.80;;;14.10;55.90;;;;;;4971547;28;20460;-77
2022/09/03 02:49:23;;;;;;;1.47;0.83;;;14.10;55.50;;;;;;4956548;28;20095;-77
2022/09/03 02:51:48;;;;;;;0.85;0.85;;;14.00;55.50;;;;;;4994152;28;20094;-77
2022/09/03 02:54:14;;;;;;;1.90;0.60;;;14.00;55.70;;;;;;4973077;28;20049;-77
2022/09/03 02:56:40;;;;;;;0.73;0.73;;;14.00;55.70;;;;;;4965768;28;20042;-78
2022/09/03 02:59:07;;;;;;;0.60;0.60;;;14.00;55.80;;;;;;4988043;28;20033;-77
2022/09/03 03:01:32;;;;;;;1.08;0.65;;;13.90;55.80;;;;;;4968420;28;20039;-77
2022/09/03 03:03:58;;;;;;;2.55;0.80;;;13.90;55.90;;;;;;4969986;28;20054;-77
2022/09/03 03:06:23;;;;;;;1.10;0.90;;;13.90;55.50;;;;;;4986543;28;20047;-76
2022/09/03 03:08:49;;;;;;;1.17;0.70;;;13.90;56.00;;;;;;4980425;28;20038;-77
2022/09/03 03:11:17;;;;;;;0.60;0.60;;;13.90;56.00;;;;;;4971909;28;20053;-76
2022/09/03 03:13:42;;;;;;;1.13;0.80;;;13.90;56.10;;;;;;4990413;28;20042;-77
2022/09/03 03:16:08;;;;;;;2.65;0.73;;;13.90;56.20;;;;;;4985981;28;20085;-77
2022/09/03 03:18:34;;;;;;;1.02;0.70;;;13.80;56.20;;;;;;4989471;28;20108;-77
2022/09/03 03:21:06;;;;;;;0.98;0.80;;;13.80;56.40;;;;;;4989674;28;20148;-77
2022/09/03 03:23:33;;;;;;;1.10;0.90;;;13.80;56.50;;;;;;4971761;28;20511;-76
2022/09/03 03:26:02;;;;;;;2.38;0.60;;;13.80;56.40;;;;;;4986731;28;20034;-76
2022/09/03 03:28:32;;;;;;;2.53;0.77;;;13.80;56.50;;;;;;4969585;28;20031;-77
2022/09/03 03:31:08;;;;;;;1.38;1.00;;;13.80;56.50;;;;;;4970960;28;20058;-77
2022/09/03 03:33:34;;;;;;;0.82;0.82;;;13.70;56.50;;;;;;4956551;28;20038;-76
2022/09/03 03:36:09;;;;;;;1.60;0.80;;;13.70;56.80;;;;;;4970033;28;20053;-77
2022/09/03 03:38:35;;;;;;;1.23;0.77;;;13.70;57.00;;;;;;4969247;28;20034;-76
2022/09/03 03:41:07;;;;;;;2.63;0.70;;;13.70;56.90;;;;;;4969029;28;20041;-77
2022/09/03 03:43:32;;;;;;;2.28;1.05;;;13.70;57.90;;;;;;4987387;28;20549;-78
2022/09/03 03:45:58;;;;;;;1.30;0.65;;;13.60;57.00;;;;;;4988138;28;20046;-77
2022/09/03 03:48:24;;;;;;;3.00;0.90;;;13.60;57.10;;;;;;4958103;28;20034;-77
2022/09/03 03:50:50;;;;;;;0.60;0.60;;;13.60;57.30;;;;;;4976638;28;20038;-77
2022/09/03 03:53:15;;;;;;;1.88;0.70;;;13.60;57.30;;;;;;4961460;28;20053;-77
2022/09/03 03:55:41;;;;;;;0.75;0.60;;;13.70;57.40;;;;;;4993353;28;21584;-77
2022/09/03 03:58:06;;;;;;;1.00;0.80;;;13.60;57.30;;;;;;4980490;28;20038;-77
2022/09/03 04:00:36;;;;;;;5.20;1.35;;;13.60;57.50;;;;;;4989908;28;20038;-76
2022/09/03 04:03:02;;;;;;;2.28;0.80;;;13.60;57.40;;;;;;4968904;28;20042;-76
2022/09/03 04:05:28;;;;;;;1.30;0.80;;;13.60;57.60;;;;;;5007008;28;20039;-77
2022/09/03 04:07:54;;;;;;;0.88;0.57;;;13.60;57.70;;;;;;4961309;28;20071;-76
2022/09/03 04:10:19;;;;;;;3.88;0.80;;;13.60;57.60;;;;;;4975369;28;20500;-76
2022/09/03 04:12:45;;;;;;;1.25;0.60;;;13.60;57.70;;;;;;4958536;28;20049;-76
2022/09/03 04:15:10;;;;;;;3.13;0.80;;;13.60;57.80;;;;;;4978694;28;20041;-78
2022/09/03 04:17:36;;;;;;;0.73;0.68;;;13.60;57.90;;;;;;4978906;28;20095;-77
2022/09/03 04:20:02;;;;;;;3.90;0.85;;;13.70;58.10;;;;;;4999855;28;20058;-77
2022/09/03 04:22:28;;;;;;;4.43;0.82;;;13.70;58.00;;;;;;4975472;28;20042;-77
2022/09/03 04:24:53;;;;;;;1.38;0.82;;;13.70;58.00;;;;;;4975878;28;20042;-77
2022/09/03 04:27:19;;;;;;;1.98;0.85;;;13.70;58.10;;;;;;4974408;28;20038;-76
2022/09/03 04:29:44;;;;;;;8.00;1.10;;;13.70;58.20;;;;;;4990798;28;20969;-76
2022/09/03 04:34:54;;;;;;;2.05;0.90;;;13.70;58.30;;;;;;4988436;28;20117;-77
2022/09/03 04:37:20;;;;;;;1.08;0.70;;;13.70;58.30;;;;;;4988292;28;20073;-76
2022/09/03 04:39:46;;;;;;;2.40;0.80;;;13.80;58.30;;;;;;4961173;28;20046;-76
2022/09/03 04:42:11;;;;;;;8.48;1.25;;;13.80;58.50;;;;;;4986803;28;20077;-77
2022/09/03 04:44:37;;;;;;;3.78;0.70;;;13.70;58.50;;;;;;4944308;28;20435;-76
2022/09/03 04:47:04;;;;;;;1.63;0.80;;;13.80;58.50;;;;;;4956231;28;20046;-76
2022/09/03 04:49:29;;;;;;;1.02;0.80;;;13.80;58.70;;;;;;4970374;28;20595;-77
2022/09/03 04:51:55;;;;;;;1.48;0.80;;;13.80;58.70;;;;;;4948623;28;20036;-76
2022/09/03 04:54:20;;;;;;;1.77;0.77;;;13.90;58.90;;;;;;4934195;28;20031;-77
2022/09/03 04:56:46;;;;;;;3.10;0.70;;;13.80;58.80;;;;;;4948091;28;20095;-77
2022/09/03 04:59:12;;;;;;;3.88;0.85;;;13.80;58.80;;;;;;4972517;28;20039;-77
2022/09/03 05:01:38;;;;;;;2.80;1.10;;;13.90;58.90;;;;;;4966401;28;20542;-76
2022/09/03 05:04:04;;;;;;;0.80;0.70;;;13.90;59.00;;;;;;4969564;28;20031;-78
2022/09/03 05:06:30;;;;;;;2.95;0.85;;;13.90;58.90;;;;;;4932706;28;20479;-78
2022/09/03 05:08:56;;;;;;;4.28;0.80;;;14.00;58.80;;;;;;4964933;28;20032;-76
2022/09/03 05:11:22;;;;;;;1.63;0.77;;;14.00;58.80;;;;;;4940795;28;20738;-77
2022/09/03 05:13:48;;;;;;;1.20;0.70;;;14.00;58.80;;;;;;4962596;28;20050;-76
2022/09/03 05:16:14;;;;;;;0.80;0.70;;;14.10;58.70;;;;;;4951759;28;20082;-76
2022/09/03 05:18:41;;;;;;;1.55;0.90;;;14.10;58.60;;;;;;4962940;28;20043;-76
2022/09/03 05:21:11;;;;;;;1.17;0.98;;;14.20;58.70;;;;;;4966820;28;20035;-77
2022/09/03 05:23:38;;;;;;;1.77;0.80;;;14.20;58.70;;;;;;4936127;28;20500;-77
2022/09/03 05:26:08;;;;;;;0.85;0.80;;;14.20;58.60;;;;;;4959722;28;20141;-77
2022/09/03 05:28:35;;;;;;;1.60;0.80;;;14.30;58.60;;;;;;4965134;28;20407;-77
2022/09/03 05:31:01;;;;;;;1.27;1.17;;;14.30;58.60;;;;;;4974526;28;20039;-76
2022/09/03 05:33:27;;;;;;;0.95;0.90;;;14.30;59.10;;;;;;4966981;28;20038;-76
2022/09/03 05:36:02;;;;;;;0.90;0.85;;;14.40;58.50;;;;;;4954859;28;20031;-76
2022/09/03 05:38:28;;;;;;;0.77;0.70;;;14.40;58.50;;;;;;4938048;28;20047;-77
2022/09/03 05:40:53;;;;;;;2.17;0.85;;;14.40;58.50;;;;;;4954885;28;20496;-78
2022/09/03 05:43:20;;;;;;;3.00;1.10;;;14.40;58.40;;;;;;4955939;28;20096;-77
2022/09/03 05:45:46;;;;;;;1.00;0.80;;;14.50;58.80;;;;;;4956898;28;20053;-76
2022/09/03 05:48:11;;;;;;;1.25;0.80;;;14.50;58.30;;;;;;4978274;28;20542;-77
2022/09/03 05:50:37;;;;;;;1.85;0.93;;;14.60;58.40;;;;;;4980332;28;20029;-77
2022/09/03 05:53:02;;;;;;;1.95;0.60;;;14.60;58.30;;;;;;5011855;28;20038;-77
2022/09/03 05:55:28;;;;;;;0.98;0.77;;;14.60;58.30;;;;;;4994203;28;20029;-77
2022/09/03 05:57:53;;;;;;;2.35;0.70;;;14.70;58.30;;;;;;5012463;28;20146;-78
2022/09/03 06:00:19;;;;;;;2.50;0.90;;;14.70;58.30;;;;;;4990290;28;20203;-78
2022/09/03 06:02:51;;;;;;;1.70;1.10;;;14.70;58.20;;;;;;4995963;28;20573;-77
2022/09/03 06:05:17;;;;;;;1.20;0.80;;;14.80;58.30;;;;;;4968188;28;20632;-76
2022/09/03 06:07:43;;;;;;;1.25;0.82;;;14.80;58.10;;;;;;4974211;28;20046;-78
2022/09/03 06:10:11;;;;;;;1.17;0.90;;;14.80;58.10;;;;;;4985008;28;20038;-77
2022/09/03 06:12:37;;;;;;;0.90;0.80;;;14.90;58.00;;;;;;5007499;28;20114;-76
2022/09/03 06:15:04;;;;;;;2.03;0.75;;;14.90;58.00;;;;;;4985138;28;20045;-76
2022/09/03 06:17:30;;;;;;;2.15;0.68;;;15.00;58.00;;;;;;5004580;28;20430;-78
2022/09/03 06:19:55;;;;;;;1.17;0.90;;;15.00;57.90;;;;;;4964744;28;20638;-76
2022/09/03 06:22:23;;;;;;;2.33;0.80;;;15.10;57.90;;;;;;4992583;28;20033;-77
2022/09/03 06:24:49;;;;;;;1.58;0.80;;;15.10;57.80;;;;;;4979477;28;20065;-77
2022/09/03 06:27:14;;;;;;;1.75;0.82;;;15.20;57.80;;;;;;4978729;28;20099;-76
2022/09/03 06:29:40;;;;;;;1.83;0.63;;;15.20;57.70;;;;;;4994803;28;20033;-77
2022/09/03 06:32:05;;;;;;;1.05;0.80;;;15.30;57.60;;;;;;4992823;28;20040;-77
2022/09/03 06:34:31;;;;;;;1.45;0.90;;;15.30;57.70;;;;;;4965201;28;20038;-77
2022/09/03 06:36:58;;;;;;;0.70;0.70;;;15.40;57.60;;;;;;4981403;28;20503;-77
2022/09/03 06:39:24;;;;;;;6.22;0.90;;;15.40;57.50;;;;;;4963516;28;20046;-77
2022/09/03 06:41:50;;;;;;;1.33;0.80;;;15.50;57.40;;;;;;4998268;28;20038;-77
2022/09/03 06:44:16;;;;;;;1.77;0.70;;;15.50;57.40;;;;;;4993914;28;20050;-76
2022/09/03 06:46:42;;;;;;;1.17;0.70;;;15.60;57.30;;;;;;5004934;28;20533;-76
2022/09/03 06:49:07;;;;;;;2.35;0.80;;;15.60;57.30;;;;;;5012917;28;20038;-77
2022/09/03 06:51:33;;;;;;;1.40;0.90;;;15.70;57.30;;;;;;4997243;28;20034;-76
2022/09/03 06:54:00;;;;;;;3.13;0.70;;;15.70;57.20;;;;;;4976077;28;20053;-72
2022/09/03 06:56:26;;;;;;;3.28;0.98;;;15.80;57.20;;;;;;4968133;28;20026;-71
2022/09/03 06:58:56;;;;;;;2.47;0.80;;;15.90;57.20;;;;;;4978660;28;20490;-71
2022/09/03 07:01:26;;;;;;;1.95;1.10;;;15.90;57.10;;;;;;4963631;28;20034;-70
2022/09/03 07:03:56;;;;;;;0.95;0.88;;;16.00;57.00;;;;;;4977623;28;20039;-72
2022/09/03 07:06:23;;;;;;;1.73;1.00;;;16.00;57.00;;;;;;4953254;28;20053;-70
2022/09/03 07:08:49;;;;;;;0.80;0.80;;;16.10;57.00;;;;;;4957873;28;20053;-72
2022/09/03 07:11:18;;;;;;;1.10;0.80;;;16.10;56.80;;;;;;4963461;28;20538;-70
2022/09/03 07:13:46;;;;;;;0.95;0.65;;;16.20;56.70;;;;;;4957554;28;20069;-71
2022/09/03 07:16:13;;;;;;;0.95;0.75;;;16.20;56.80;;;;;;4983998;28;20041;-71
2022/09/03 07:18:38;;;;;;;3.22;0.85;;;16.30;56.60;;;;;;4951046;28;20125;-71
2022/09/03 07:21:06;;;;;;;0.90;0.60;;;16.30;56.50;;;;;;4984054;28;20406;-71
2022/09/03 07:23:32;;;;;;;1.58;0.90;;;16.40;57.20;;;;;;4998519;28;20037;-71
2022/09/03 07:25:59;;;;;;;4.53;0.60;;;16.40;56.50;;;;;;4981642;28;20104;-72
2022/09/03 07:28:25;;;;;;;2.15;0.70;;;16.50;56.50;;;;;;4977100;28;20061;-71
2022/09/03 07:30:51;;;;;;;4.68;0.90;;;16.50;56.30;;;;;;4981737;28;20058;-72
2022/09/03 07:33:17;;;;;;;10.70;1.38;;;16.60;56.30;;;;;;4948154;28;20038;-72
2022/09/03 07:35:43;;;;;;;18.35;1.38;;;16.60;56.20;;;;;;4944109;28;20034;-72
2022/09/03 07:38:09;;;;;;;8.60;0.90;;;16.70;56.10;;;;;;4978396;28;20518;-71
2022/09/03 07:40:34;;;;;;;4.05;0.77;;;16.70;56.10;;;;;;4981726;28;20035;-72
2022/09/03 07:43:03;;;;;;;9.88;1.40;;;16.80;56.10;;;;;;4971429;28;20515;-71
2022/09/03 07:45:30;;;;;;;3.00;1.00;;;16.90;56.00;;;;;;4961595;28;20038;-71
2022/09/03 07:47:55;;;;;;;6.40;1.00;;;16.90;55.80;;;;;;4986932;28;20132;-70
2022/09/03 07:50:21;;;;;;;6.97;1.33;;;17.00;55.80;;;;;;4945911;28;20138;-71
2022/09/03 07:52:47;;;;;;;5.32;0.98;;;17.10;55.80;;;;;;4981073;28;20050;-73
2022/09/03 07:55:13;;;;;;;16.80;1.20;;;17.10;55.60;;;;;;4981876;28;20042;-72
2022/09/03 07:57:38;;;;;;;2.63;0.90;;;17.20;55.60;;;;;;4966777;28;20039;-70
2022/09/03 08:00:07;;;;;;;3.58;1.00;;;17.30;55.60;;;;;;4949113;28;20119;-72
2022/09/03 08:02:33;;;;;;;2.10;0.95;;;17.40;55.50;;;;;;4963543;28;20489;-71
2022/09/03 08:04:59;;;;;;;1.02;0.88;;;17.50;55.40;;;;;;4962412;28;20559;-71
2022/09/03 08:07:25;;;;;;;20.83;2.65;;;17.60;55.30;;;;;;4978409;28;20042;-73
2022/09/03 08:09:51;;;;;;;8.38;1.45;;;17.70;55.10;;;;;;4979581;28;20069;-71
2022/09/03 08:12:16;;;;;;;7.47;1.20;;;17.80;55.10;;;;;;4980062;28;20038;-70
2022/09/03 08:14:42;;;;;;;5.95;1.08;;;17.90;55.00;;;;;;4979172;28;20070;-70
2022/09/03 08:17:07;;;;;;;4.38;1.02;;;18.10;54.90;;;;;;4997957;28;20041;-71
2022/09/03 08:19:33;;;;;;;2.55;0.82;;;18.20;54.70;;;;;;4978509;28;20411;-72
2022/09/03 08:21:59;;;;;;;8.93;1.05;;;18.30;54.60;;;;;;4964888;28;20115;-70
2022/09/03 08:24:25;;;;;;;4.18;1.33;;;18.50;54.50;;;;;;4999545;28;20038;-77
2022/09/03 08:26:53;;;;;;;5.13;1.10;;;18.60;54.40;;;;;;5009844;28;20061;-76
2022/09/03 08:29:19;;;;;;;1.92;0.88;;;18.70;54.10;;;;;;5020603;28;20038;-77
2022/09/03 08:31:44;;;;;;;2.10;0.90;;;18.90;54.00;;;;;;5008098;28;20034;-76
2022/09/03 08:34:11;;;;;;;7.40;0.90;;;19.00;53.80;;;;;;5018725;28;20049;-78
2022/09/03 08:36:43;;;;;;;5.88;1.10;;;19.10;53.60;;;;;;5002810;28;20030;-78
2022/09/03 08:39:09;;;;;;;13.80;1.42;;;19.20;53.40;;;;;;5005932;28;20030;-76
2022/09/03 08:41:43;;;;;;;11.00;1.55;;;19.30;53.20;;;;;;5005228;28;20015;-76
2022/09/03 08:44:25;;;;;;;4.20;1.08;;;19.40;53.10;;;;;;5005522;28;20101;-77
2022/09/03 08:47:11;;;;;;;6.22;0.98;;;19.50;52.80;;;;;;4990916;28;20068;-76
2022/09/03 08:49:54;;;;;;;2.83;1.08;;;19.70;52.60;;;;;;4989625;28;20072;-77
2022/09/03 08:52:31;;;;;;;2.67;0.80;;;19.80;52.50;;;;;;5005761;28;20046;-77
2022/09/03 08:55:21;;;;;;;3.83;1.40;;;20.00;52.50;;;;;;4989145;28;20074;-77
2022/09/03 08:58:07;;;;;;;4.00;1.02;;;20.10;52.30;;;;;;5004159;28;20042;-72
2022/09/03 09:00:51;;;;;;;22.73;2.55;;;20.30;52.10;;;;;;4976258;28;20061;-77
2022/09/03 09:03:41;;;;;;;2.55;0.85;;;20.50;52.00;;;;;;5004389;28;20806;-77
2022/09/03 09:06:13;;;;;;;0.85;0.85;;;20.80;51.80;;;;;;4958683;28;20030;-77
2022/09/03 09:09:09;;;;;;;1.17;0.90;;;21.00;51.40;;;;;;5003419;28;20034;-77
2022/09/03 09:11:59;;;;;;;2.83;0.88;;;21.30;51.00;;;;;;5004321;28;20049;-77
2022/09/03 09:14:33;;;;;;;2.45;1.30;;;21.50;50.60;;;;;;5003084;28;20046;-78
2022/09/03 09:16:58;;;;;;;2.47;0.90;;;21.70;50.50;;;;;;5001700;28;20118;-77
2022/09/03 09:19:52;;;;;;;5.65;1.10;;;21.90;50.20;;;;;;5002054;28;20038;-77
2022/09/03 09:22:31;;;;;;;8.82;1.30;;;22.10;49.70;;;;;;4979926;28;20106;-76
2022/09/03 09:24:58;;;;;;;7.78;0.90;;;22.30;49.40;;;;;;4990190;28;20066;-78
2022/09/03 09:27:24;;;;;;;1.65;0.88;;;22.40;49.20;;;;;;4986253;28;20058;-76
2022/09/03 09:29:49;;;;;;;3.53;1.13;;;22.50;48.90;;;;;;4982029;28;20038;-76
2022/09/03 09:32:19;;;;;;;19.05;1.40;;;22.70;48.80;;;;;;4990292;28;20125;-77
2022/09/03 09:34:44;;;;;;;5.97;0.90;;;22.90;48.70;;;;;;5003929;28;20137;-76
2022/09/03 09:37:14;;;;;;;3.65;1.00;;;23.20;48.40;;;;;;4993146;28;20022;-76
2022/09/03 09:39:40;;;;;;;9.20;1.10;;;23.40;47.90;;;;;;4977668;28;21063;-77
2022/09/03 09:42:08;;;;;;;23.90;2.28;;;23.60;47.60;;;;;;4991676;28;20042;-77
2022/09/03 09:44:34;;;;;;;13.68;1.35;;;23.90;47.30;;;;;;4988041;28;20200;-77
2022/09/03 09:47:30;;;;;;;21.70;2.50;;;24.20;47.00;;;;;;4987976;28;20054;-76
2022/09/03 09:49:57;;;;;;;11.77;1.10;;;24.40;46.30;;;;;;4988184;28;20031;-77
2022/09/03 09:52:28;;;;;;;7.47;1.23;;;24.50;46.10;;;;;;4992119;28;20030;-77
2022/09/03 09:55:06;;;;;;;4.28;0.90;;;24.70;45.80;;;;;;4974537;28;20292;-78
2022/09/03 09:57:32;;;;;;;1.13;0.68;;;24.80;45.60;;;;;;4988215;28;20046;-78
2022/09/03 10:00:12;;;;;;;1.77;0.90;;;24.90;45.30;;;;;;4983970;28;20022;-78
2022/09/03 10:02:39;;;;;;;1.75;0.82;;;25.00;44.80;;;;;;4983315;28;20034;-76
2022/09/03 10:05:23;;;;;;;4.60;0.98;;;25.00;44.60;;;;;;4988821;28;20049;-77
2022/09/03 10:08:00;;;;;;;5.40;0.75;;;25.10;44.00;;;;;;5024428;28;20037;-77
2022/09/03 10:10:26;;;;;;;3.80;0.98;;;25.10;44.00;;;;;;4962177;28;20085;-78
2022/09/03 10:13:04;;;;;;;6.65;1.13;;;25.20;44.10;;;;;;4959251;28;20154;-77
2022/09/03 10:15:35;;;;;;;5.57;1.38;;;25.20;43.50;;;;;;4966311;28;20596;-77
2022/09/03 10:18:27;;;;;;;6.97;1.10;;;25.30;43.80;;;;;;4990213;28;20033;-77
2022/09/03 10:21:17;;;;;;;1.85;1.20;;;25.50;43.50;;;;;;5007201;28;20019;-77
2022/09/03 10:24:04;;;;;;;3.17;0.88;;;25.60;43.10;;;;;;5000946;28;20042;-78
2022/09/03 10:26:31;;;;;;;4.07;1.10;;;25.80;42.80;;;;;;4996608;28;20038;-77
2022/09/03 10:28:59;;;;;;;2.17;0.93;;;25.80;43.00;;;;;;4999092;28;20038;-77
2022/09/03 10:31:28;;;;;;;1.05;0.85;;;25.90;42.70;;;;;;4998377;28;20038;-78
2022/09/03 10:33:55;;;;;;;5.13;1.38;;;26.00;42.60;;;;;;4978103;28;20399;-77
2022/09/03 10:36:22;;;;;;;4.38;0.90;;;26.10;42.50;;;;;;4999147;28;20045;-78
2022/09/03 10:38:53;;;;;;;8.43;1.00;;;26.10;42.30;;;;;;4986191;28;20038;-77
2022/09/03 10:41:22;;;;;;;15.40;1.57;;;26.20;42.10;;;;;;4963032;28;20042;-78
2022/09/03 10:43:58;;;;;;;12.48;1.15;;;26.20;42.00;;;;;;4988955;28;20871;-78
2022/09/03 10:46:28;;;;;;;5.90;1.20;;;26.20;41.70;;;;;;4979578;28;20043;-77
2022/09/03 10:49:14;;;;;;;2.55;0.80;;;26.30;41.70;;;;;;4965700;28;20062;-77
2022/09/03 10:51:41;;;;;;;3.10;1.50;;;26.30;41.30;;;;;;4980433;28;20052;-76
2022/09/03 10:54:44;;;;;;;4.90;0.93;;;26.30;41.50;;;;;;4984053;28;20099;-76
2022/09/03 10:57:22;;;;;;;2.25;0.77;;;26.40;41.00;;;;;;4975153;28;20065;-80
2022/09/03 11:00:11;;;;;;;9.13;1.20;;;26.30;41.10;;;;;;4974556;28;20054;-79
2022/09/03 11:03:01;;;;;;;2.92;1.05;;;26.30;41.10;;;;;;4964384;28;20066;-80
2022/09/03 11:05:31;;;;;;;2.75;0.80;;;26.30;40.70;;;;;;4972945;28;20054;-79
2022/09/03 11:08:05;;;;;;;3.67;1.02;;;26.30;41.00;;;;;;4970614;28;20042;-77
2022/09/03 11:10:32;;;;;;;3.83;0.85;;;26.30;40.90;;;;;;4962047;28;20034;-78
2022/09/03 11:13:13;;;;;;;3.22;0.98;;;26.30;40.90;;;;;;4964979;28;20046;-77
2022/09/03 11:15:42;;;;;;;5.13;0.90;;;26.30;40.70;;;;;;4958584;28;20087;-78
2022/09/03 11:18:23;;;;;;;12.30;1.50;;;26.20;40.80;;;;;;4992920;28;20113;-79
2022/09/03 11:20:49;;;;;;;4.78;1.50;;;26.10;40.70;;;;;;4992681;28;20066;-77
2022/09/03 11:23:15;;;;;;;1.40;0.85;;;26.00;40.90;;;;;;4977406;28;20054;-76
2022/09/03 11:25:43;;;;;;;3.25;1.05;;;25.90;40.90;;;;;;4976814;28;20066;-78
2022/09/03 11:28:30;;;;;;;7.03;0.98;;;25.90;41.10;;;;;;4991768;28;20478;-77
2022/09/03 11:31:12;;;;;;;2.25;1.02;;;25.80;41.40;;;;;;4980263;28;20590;-78
2022/09/03 11:33:46;;;;;;;2.65;0.90;;;25.80;41.70;;;;;;4996805;28;20042;-77
2022/09/03 11:36:12;;;;;;;1.92;1.10;;;25.70;41.80;;;;;;5011867;28;20049;-77
2022/09/03 11:38:38;;;;;;;2.03;1.00;;;25.70;42.10;;;;;;4996737;28;20018;-78
2022/09/03 11:41:14;;;;;;;2.42;0.90;;;25.70;42.50;;;;;;4995522;28;20038;-77
2022/09/03 11:43:41;;;;;;;2.38;1.00;;;25.60;43.50;;;;;;4999509;28;20073;-76
2022/09/03 11:46:12;;;;;;;1.40;1.00;;;25.50;43.50;;;;;;4983834;28;20041;-77
2022/09/03 11:48:45;;;;;;;1.40;0.90;;;25.50;44.20;;;;;;4996306;28;20110;-77
2022/09/03 11:51:28;;;;;;;3.22;0.90;;;25.40;44.90;;;;;;4980678;28;20042;-78
2022/09/03 11:54:19;;;;;;;2.45;1.15;;;25.40;45.70;;;;;;4998376;28;20034;-77
2022/09/03 11:56:48;;;;;;;6.20;1.35;;;25.30;45.70;;;;;;4980542;28;20046;-78
2022/09/03 11:59:17;;;;;;;1.58;1.10;;;25.20;45.60;;;;;;4994473;28;20042;-79
2022/09/03 12:01:46;;;;;;;4.85;1.38;;;25.10;46.00;;;;;;4976934;28;20038;-76
2022/09/03 12:04:15;;;;;;;4.47;1.38;;;24.90;46.30;;;;;;4998374;28;20043;-76
2022/09/03 12:06:57;;;;;;;3.38;1.20;;;24.80;46.80;;;;;;4963842;28;20034;-72
2022/09/03 12:09:47;;;;;;;5.32;0.90;;;24.60;47.10;;;;;;4968459;28;20062;-72
2022/09/03 12:12:46;;;;;;;3.17;1.10;;;24.50;47.80;;;;;;4977160;28;20788;-73
2022/09/03 12:15:25;;;;;;;2.13;1.13;;;24.50;48.50;;;;;;4977049;28;20089;-75
2022/09/03 12:18:17;;;;;;;3.83;1.40;;;24.50;48.80;;;;;;4975359;28;20042;-74
2022/09/03 12:20:38;;;;;;;2.83;1.15;;;24.50;48.70;;;;;;4978969;28;20058;-74
2022/09/03 12:23:03;;;;;;;2.45;1.20;;;24.50;48.80;;;;;;4980161;28;20030;-74
2022/09/03 12:25:29;;;;;;;4.28;1.30;;;24.60;49.20;;;;;;4980441;28;20117;-73
2022/09/03 12:27:55;;;;;;;2.80;1.10;;;24.60;49.30;;;;;;4983846;28;20446;-73
2022/09/03 12:30:23;;;;;;;1.63;1.17;;;24.60;49.60;;;;;;4985295;28;20034;-75
2022/09/03 12:32:50;;;;;;;4.03;1.45;;;24.80;50.10;;;;;;4969189;28;20038;-75
2022/09/03 12:35:20;;;;;;;2.85;1.30;;;25.00;49.90;;;;;;4956425;28;20038;-74
2022/09/03 12:37:46;;;;;;;2.45;1.00;;;25.20;49.70;;;;;;4971130;28;20031;-75
2022/09/03 12:40:22;;;;;;;2.45;1.45;;;25.30;49.50;;;;;;4989760;28;20065;-75
2022/09/03 12:42:48;;;;;;;3.47;1.20;;;25.40;49.50;;;;;;4983983;28;20038;-74
2022/09/03 12:45:15;;;;;;;2.60;0.95;;;25.60;49.00;;;;;;4970069;28;20042;-75
2022/09/03 12:47:41;;;;;;;0.98;0.80;;;25.70;48.40;;;;;;4972501;28;20026;-74
2022/09/03 12:50:15;;;;;;;3.92;1.20;;;25.80;48.20;;;;;;4973815;28;20026;-74
2022/09/03 12:52:50;;;;;;;1.20;0.90;;;25.80;47.90;;;;;;4990882;28;20034;-74
2022/09/03 12:55:30;;;;;;;1.38;1.00;;;25.80;47.50;;;;;;4987738;28;20625;-73
2022/09/03 12:57:58;;;;;;;2.35;1.10;;;25.80;47.10;;;;;;4956501;28;20113;-73
2022/09/03 13:00:23;;;;;;;1.20;1.08;;;25.90;47.20;;;;;;4981488;28;20696;-73
2022/09/03 13:02:57;;;;;;;2.65;0.88;;;25.90;46.90;;;;;;4949884;28;20121;-72
2022/09/03 13:05:29;;;;;;;1.42;1.00;;;25.90;46.70;;;;;;4979572;28;20054;-73
2022/09/03 13:07:56;;;;;;;1.63;0.93;;;26.00;46.50;;;;;;4980428;28;20077;-72
2022/09/03 13:10:25;;;;;;;1.95;1.13;;;26.20;46.40;;;;;;4961378;28;20527;-72